Time;durP1;ratioP1;P1;durP2;ratioP2;P2;SDS_P1;SDS_P2;PMS_P1;PMS_P2;Temp;Humidity;BMP_temperature;BMP_pressure;BME280_temperature;BME280_humidity;BME280_pressure;Samples;Min_cycle;Max_cycle;Signal;HPM_P1;HPM_P2
2024/01/26 00:01:27;;;;;;;0.00;0.00;;;5.50;99.90;;;;;;5018089;28;20054;-63
2024/01/26 00:03:53;;;;;;;0.00;0.00;;;5.40;99.90;;;;;;4993850;28;20103;-63
2024/01/26 00:06:19;;;;;;;0.00;0.00;;;5.40;99.90;;;;;;5000191;28;20022;-63
2024/01/26 00:08:44;;;;;;;0.00;0.00;;;5.50;99.90;;;;;;4995985;28;20030;-64
2024/01/26 00:11:15;;;;;;;0.00;0.00;;;5.50;99.90;;;;;;4997017;28;20026;-64
2024/01/26 00:13:40;;;;;;;0.00;0.00;;;5.50;99.90;;;;;;4999913;28;20029;-64
2024/01/26 00:16:06;;;;;;;0.00;0.00;;;5.40;99.90;;;;;;4995944;28;20029;-64
2024/01/26 00:18:32;;;;;;;0.00;0.00;;;5.40;99.90;;;;;;5003681;28;20401;-63
2024/01/26 00:20:58;;;;;;;0.00;0.00;;;5.40;99.90;;;;;;4997981;28;20099;-63
2024/01/26 00:23:24;;;;;;;0.00;0.00;;;5.40;99.90;;;;;;4997212;28;20038;-64
2024/01/26 00:25:49;;;;;;;0.00;0.00;;;5.40;99.90;;;;;;4995070;28;20037;-64
2024/01/26 00:28:15;;;;;;;0.00;0.00;;;5.40;99.90;;;;;;4997853;28;20110;-65
2024/01/26 00:30:41;;;;;;;0.00;0.00;;;5.30;99.90;;;;;;5002674;28;20117;-64
2024/01/26 00:33:07;;;;;;;0.00;0.00;;;5.30;99.90;;;;;;4996752;28;20479;-63
2024/01/26 00:35:33;;;;;;;0.00;0.00;;;5.40;99.90;;;;;;4999783;28;20539;-63
2024/01/26 00:37:59;;;;;;;0.00;0.00;;;5.50;99.90;;;;;;4994673;28;20030;-64
2024/01/26 00:40:24;;;;;;;0.00;0.00;;;5.50;99.90;;;;;;4999251;28;20080;-63
2024/01/26 00:42:50;;;;;;;0.00;0.00;;;5.50;99.90;;;;;;4999105;28;20731;-63
2024/01/26 00:45:16;;;;;;;0.00;0.00;;;5.60;99.90;;;;;;5000254;28;20451;-63
2024/01/26 00:47:41;;;;;;;0.00;0.00;;;5.60;99.90;;;;;;4999255;28;20105;-64
2024/01/26 00:50:07;;;;;;;0.00;0.00;;;5.60;99.90;;;;;;4991723;28;20088;-63
2024/01/26 00:52:33;;;;;;;0.00;0.00;;;5.60;99.90;;;;;;5003186;28;20032;-63
2024/01/26 00:54:59;;;;;;;0.00;0.00;;;5.70;99.90;;;;;;4996835;28;20446;-62
2024/01/26 00:57:25;;;;;;;0.00;0.00;;;5.60;99.90;;;;;;4999264;28;20014;-63
2024/01/26 00:59:51;;;;;;;0.00;0.00;;;5.50;99.90;;;;;;4995966;28;20026;-63
2024/01/26 01:02:16;;;;;;;0.00;0.00;;;5.50;99.90;;;;;;4998779;28;20030;-63
2024/01/26 01:04:42;;;;;;;0.00;0.00;;;5.40;99.90;;;;;;4998745;28;20168;-62
2024/01/26 01:07:08;;;;;;;0.00;0.00;;;5.40;99.90;;;;;;5000144;28;20034;-62
2024/01/26 01:09:34;;;;;;;0.00;0.00;;;5.40;99.90;;;;;;4993563;28;20240;-63
2024/01/26 01:12:00;;;;;;;0.00;0.00;;;5.40;99.90;;;;;;4997131;28;20029;-63
2024/01/26 01:14:26;;;;;;;0.00;0.00;;;5.40;99.90;;;;;;4993660;28;20030;-62
2024/01/26 01:16:56;;;;;;;0.00;0.00;;;5.40;99.90;;;;;;4998183;28;20156;-62
2024/01/26 01:19:22;;;;;;;0.00;0.00;;;5.40;99.90;;;;;;4997133;28;20038;-63
2024/01/26 01:21:48;;;;;;;0.00;0.00;;;5.30;99.90;;;;;;4998245;28;20720;-62
2024/01/26 01:24:14;;;;;;;0.00;0.00;;;5.30;99.90;;;;;;4998591;28;20034;-63
2024/01/26 01:26:39;;;;;;;0.00;0.00;;;5.40;99.90;;;;;;4999495;28;20045;-64
2024/01/26 01:29:06;;;;;;;0.00;0.00;;;5.40;99.90;;;;;;4995303;28;20959;-63
2024/01/26 01:31:32;;;;;;;0.00;0.00;;;5.40;99.90;;;;;;4998296;28;20202;-63
2024/01/26 01:33:58;;;;;;;0.00;0.00;;;5.40;99.90;;;;;;4993087;28;20121;-63
2024/01/26 01:36:23;;;;;;;0.00;0.00;;;5.40;99.90;;;;;;5022879;28;20026;-62
2024/01/26 01:38:49;;;;;;;0.00;0.00;;;5.40;99.90;;;;;;4998375;28;20084;-63
2024/01/26 01:41:15;;;;;;;0.00;0.00;;;5.30;99.90;;;;;;4997633;28;20026;-63
2024/01/26 01:43:40;;;;;;;0.00;0.00;;;5.30;99.90;;;;;;4997552;28;20598;-63
2024/01/26 01:46:07;;;;;;;0.00;0.00;;;5.20;99.90;;;;;;4994353;28;20061;-62
2024/01/26 01:48:32;;;;;;;0.00;0.00;;;5.20;99.90;;;;;;4998260;28;20056;-61
2024/01/26 01:50:59;;;;;;;0.00;0.00;;;5.10;99.90;;;;;;4994066;28;20061;-62
2024/01/26 01:53:24;;;;;;;0.00;0.00;;;5.20;99.90;;;;;;5023038;28;20022;-62
2024/01/26 01:55:52;;;;;;;0.00;0.00;;;5.10;99.90;;;;;;4997956;28;20104;-63
2024/01/26 01:58:18;;;;;;;0.00;0.00;;;5.20;99.90;;;;;;4995773;28;20104;-67
2024/01/26 02:00:46;;;;;;;0.00;0.00;;;5.20;99.90;;;;;;5001955;28;20409;-62
2024/01/26 02:03:12;;;;;;;0.00;0.00;;;5.20;99.90;;;;;;5000291;28;20026;-63
2024/01/26 02:05:37;;;;;;;0.00;0.00;;;5.30;99.90;;;;;;4998100;28;20032;-62
2024/01/26 02:08:03;;;;;;;0.00;0.00;;;5.30;99.90;;;;;;4997057;28;20549;-62
2024/01/26 02:10:29;;;;;;;0.00;0.00;;;5.30;99.90;;;;;;4995977;28;20034;-62
2024/01/26 02:12:55;;;;;;;0.00;0.00;;;5.40;99.90;;;;;;5021194;28;20068;-63
2024/01/26 02:15:20;;;;;;;0.00;0.00;;;5.30;99.90;;;;;;5021164;28;20025;-63
2024/01/26 02:17:46;;;;;;;0.00;0.00;;;5.30;99.90;;;;;;4998106;28;20128;-62
2024/01/26 02:20:12;;;;;;;0.00;0.00;;;5.30;99.90;;;;;;5012966;28;20025;-63
2024/01/26 02:22:38;;;;;;;0.20;0.20;;;5.30;99.90;;;;;;4995672;28;20032;-63
2024/01/26 02:25:05;;;;;;;0.00;0.00;;;5.40;99.90;;;;;;4998269;28;20033;-63
2024/01/26 02:27:30;;;;;;;0.00;0.00;;;5.50;99.90;;;;;;4993237;28;20034;-62
2024/01/26 02:29:56;;;;;;;0.00;0.00;;;5.40;99.90;;;;;;5022109;28;20018;-63
2024/01/26 02:32:21;;;;;;;0.00;0.00;;;5.40;99.90;;;;;;4994782;28;20025;-62
2024/01/26 02:34:47;;;;;;;0.00;0.00;;;5.40;99.90;;;;;;5001211;28;20508;-64
2024/01/26 02:37:13;;;;;;;0.00;0.00;;;5.40;99.90;;;;;;5000629;28;20021;-62
2024/01/26 02:39:39;;;;;;;0.00;0.00;;;5.50;99.90;;;;;;4998655;28;20415;-63
2024/01/26 02:42:05;;;;;;;0.00;0.00;;;5.50;99.90;;;;;;4994597;28;20884;-63
2024/01/26 02:44:32;;;;;;;0.00;0.00;;;5.40;99.90;;;;;;4998242;28;20257;-63
2024/01/26 02:46:58;;;;;;;0.00;0.00;;;5.40;99.90;;;;;;5029520;28;20561;-63
2024/01/26 02:49:24;;;;;;;0.00;0.00;;;5.50;99.90;;;;;;4992612;28;20044;-62
2024/01/26 02:51:50;;;;;;;0.00;0.00;;;5.50;99.90;;;;;;4996093;28;20034;-62
2024/01/26 02:54:16;;;;;;;0.00;0.00;;;5.50;99.90;;;;;;5025997;28;20489;-62
2024/01/26 02:56:42;;;;;;;0.00;0.00;;;5.50;99.90;;;;;;4998760;28;20056;-63
2024/01/26 02:59:08;;;;;;;1.03;0.33;;;5.60;99.90;;;;;;4997544;28;20030;-64
2024/01/26 03:01:33;;;;;;;0.00;0.00;;;5.50;99.90;;;;;;4998889;28;20026;-62
2024/01/26 03:03:59;;;;;;;0.00;0.00;;;5.60;99.90;;;;;;4993670;28;20033;-63
2024/01/26 03:06:25;;;;;;;0.00;0.00;;;5.60;99.90;;;;;;4996304;28;20029;-63
2024/01/26 03:08:51;;;;;;;0.00;0.00;;;5.60;99.90;;;;;;4993130;28;20133;-69
2024/01/26 03:11:16;;;;;;;0.00;0.00;;;5.60;99.90;;;;;;4996674;28;20045;-62
2024/01/26 03:13:42;;;;;;;0.00;0.00;;;5.60;99.90;;;;;;4992310;28;20084;-63
2024/01/26 03:16:09;;;;;;;0.00;0.00;;;5.70;99.90;;;;;;4998024;28;20501;-62
2024/01/26 03:18:35;;;;;;;0.00;0.00;;;5.60;99.90;;;;;;4999827;28;20053;-62
2024/01/26 03:21:01;;;;;;;0.00;0.00;;;5.60;99.90;;;;;;4997612;28;20053;-62
2024/01/26 03:23:27;;;;;;;0.00;0.00;;;5.60;99.90;;;;;;4995516;28;20117;-62
2024/01/26 03:25:52;;;;;;;0.00;0.00;;;5.60;99.90;;;;;;4997933;28;20530;-62
2024/01/26 03:28:18;;;;;;;0.00;0.00;;;5.60;99.90;;;;;;4996882;28;20699;-62
2024/01/26 03:30:44;;;;;;;0.00;0.00;;;5.60;99.90;;;;;;4997021;28;20105;-63
2024/01/26 03:33:09;;;;;;;0.00;0.00;;;5.60;99.90;;;;;;4993284;28;20028;-64
2024/01/26 03:35:35;;;;;;;0.00;0.00;;;5.60;99.90;;;;;;4997252;28;20022;-63
2024/01/26 03:38:03;;;;;;;0.00;0.00;;;5.60;99.90;;;;;;4996941;28;20088;-62
2024/01/26 03:40:28;;;;;;;0.00;0.00;;;5.60;99.90;;;;;;4997054;28;20034;-62
2024/01/26 03:42:54;;;;;;;0.00;0.00;;;5.50;99.90;;;;;;4996568;28;20508;-62
2024/01/26 03:45:20;;;;;;;0.00;0.00;;;5.50;99.90;;;;;;4994968;28;20026;-62
2024/01/26 03:47:46;;;;;;;0.00;0.00;;;5.40;99.90;;;;;;4994524;28;20108;-64
2024/01/26 03:50:12;;;;;;;0.00;0.00;;;5.50;99.90;;;;;;4997169;28;20428;-63
2024/01/26 03:52:37;;;;;;;0.00;0.00;;;5.40;99.90;;;;;;4992141;28;20018;-62
2024/01/26 03:55:06;;;;;;;0.00;0.00;;;5.30;99.90;;;;;;4995703;28;20022;-61
2024/01/26 03:57:34;;;;;;;0.00;0.00;;;5.30;99.90;;;;;;4996780;28;20025;-62
2024/01/26 04:00:03;;;;;;;0.00;0.00;;;5.30;99.90;;;;;;4995918;28;20380;-62
2024/01/26 04:02:29;;;;;;;0.00;0.00;;;5.20;99.90;;;;;;4996299;28;20026;-62
2024/01/26 04:04:55;;;;;;;0.00;0.00;;;5.10;99.90;;;;;;5000818;28;20053;-62
2024/01/26 04:07:20;;;;;;;0.00;0.00;;;5.10;99.90;;;;;;5000825;28;20104;-63
2024/01/26 04:09:46;;;;;;;0.00;0.00;;;5.00;99.90;;;;;;5000511;28;20033;-62
2024/01/26 04:12:12;;;;;;;0.00;0.00;;;5.10;99.90;;;;;;5004537;28;20026;-64
2024/01/26 04:14:37;;;;;;;0.00;0.00;;;5.00;99.90;;;;;;4998273;28;20029;-62
2024/01/26 04:17:03;;;;;;;0.00;0.00;;;5.00;99.90;;;;;;4996765;28;20026;-63
2024/01/26 04:19:29;;;;;;;0.00;0.00;;;5.00;99.90;;;;;;5002689;28;20087;-62
2024/01/26 04:21:54;;;;;;;0.00;0.00;;;5.00;99.90;;;;;;5001075;28;20272;-63
2024/01/26 04:24:20;;;;;;;0.00;0.00;;;5.00;99.90;;;;;;5024353;28;20034;-63
2024/01/26 04:26:46;;;;;;;0.00;0.00;;;5.00;99.90;;;;;;5015884;28;20048;-63
2024/01/26 04:29:11;;;;;;;0.00;0.00;;;5.00;99.90;;;;;;5004364;28;20034;-64
2024/01/26 04:31:41;;;;;;;0.00;0.00;;;5.00;99.90;;;;;;5000108;28;20156;-63
2024/01/26 04:34:07;;;;;;;0.00;0.00;;;5.00;99.90;;;;;;4999453;28;20022;-63
2024/01/26 04:36:33;;;;;;;0.00;0.00;;;5.10;99.90;;;;;;4996532;28;20561;-63
2024/01/26 04:38:59;;;;;;;0.00;0.00;;;5.20;99.90;;;;;;5000102;28;20025;-63
2024/01/26 04:41:25;;;;;;;0.00;0.00;;;5.30;99.90;;;;;;4996841;28;20385;-63
2024/01/26 04:43:51;;;;;;;0.00;0.00;;;5.30;99.90;;;;;;5003641;28;20021;-63
2024/01/26 04:46:17;;;;;;;0.00;0.00;;;5.30;99.90;;;;;;4996107;28;20022;-65
2024/01/26 04:48:42;;;;;;;0.00;0.00;;;5.40;99.90;;;;;;4999226;28;20041;-65
2024/01/26 04:51:08;;;;;;;0.00;0.00;;;5.40;99.90;;;;;;4999995;28;20496;-63
2024/01/26 04:53:34;;;;;;;0.00;0.00;;;5.50;99.90;;;;;;5000179;28;20179;-64
2024/01/26 04:55:59;;;;;;;0.00;0.00;;;5.50;99.90;;;;;;4999885;28;20022;-63
2024/01/26 04:58:25;;;;;;;0.00;0.00;;;5.60;99.90;;;;;;4996147;28;20537;-63
2024/01/26 05:00:51;;;;;;;0.00;0.00;;;5.60;99.90;;;;;;4998318;28;20025;-64
2024/01/26 05:03:17;;;;;;;0.00;0.00;;;5.60;99.90;;;;;;4993313;28;20034;-64
2024/01/26 05:05:42;;;;;;;0.00;0.00;;;5.60;99.90;;;;;;5000835;28;20457;-64
2024/01/26 05:08:08;;;;;;;0.00;0.00;;;5.60;99.90;;;;;;4999869;28;20914;-63
2024/01/26 05:10:34;;;;;;;0.00;0.00;;;5.70;99.90;;;;;;4995239;28;20332;-63
2024/01/26 05:12:59;;;;;;;0.00;0.00;;;5.70;99.90;;;;;;5000289;28;20113;-63
2024/01/26 05:15:25;;;;;;;0.00;0.00;;;5.60;99.90;;;;;;4994864;28;20026;-63
2024/01/26 05:17:51;;;;;;;0.00;0.00;;;5.70;99.90;;;;;;5028681;28;20072;-63
2024/01/26 05:20:16;;;;;;;0.00;0.00;;;5.70;99.90;;;;;;4999737;28;20064;-63
2024/01/26 05:22:42;;;;;;;0.00;0.00;;;5.60;99.90;;;;;;5003272;28;20770;-63
2024/01/26 05:25:08;;;;;;;0.00;0.00;;;5.60;99.90;;;;;;4999901;28;20057;-62
2024/01/26 05:27:34;;;;;;;0.00;0.00;;;5.60;99.90;;;;;;4998242;28;20037;-63
2024/01/26 05:30:00;;;;;;;0.00;0.00;;;5.70;99.90;;;;;;5000349;28;20061;-63
2024/01/26 05:32:26;;;;;;;0.00;0.00;;;5.70;99.90;;;;;;5013583;28;20057;-62
2024/01/26 05:34:51;;;;;;;0.00;0.00;;;5.70;99.90;;;;;;4994736;28;20057;-62
2024/01/26 05:37:17;;;;;;;0.00;0.00;;;5.80;99.90;;;;;;4998832;28;20022;-63
2024/01/26 05:39:43;;;;;;;0.00;0.00;;;5.80;99.90;;;;;;4999939;28;20061;-62
2024/01/26 05:42:08;;;;;;;0.00;0.00;;;5.70;99.90;;;;;;4998420;28;20118;-62
2024/01/26 05:44:34;;;;;;;0.00;0.00;;;5.80;99.90;;;;;;4999553;28;20026;-62
2024/01/26 05:47:00;;;;;;;0.00;0.00;;;5.80;99.90;;;;;;4998781;28;20041;-62
2024/01/26 05:49:25;;;;;;;0.00;0.00;;;5.80;99.90;;;;;;4998676;28;20030;-63
2024/01/26 05:51:52;;;;;;;0.00;0.00;;;5.80;99.90;;;;;;4996149;28;20084;-62
2024/01/26 05:54:17;;;;;;;0.00;0.00;;;5.80;99.90;;;;;;4994164;28;20384;-68
2024/01/26 05:56:43;;;;;;;0.00;0.00;;;5.80;99.90;;;;;;5002610;28;20026;-62
2024/01/26 05:59:09;;;;;;;0.00;0.00;;;5.70;99.90;;;;;;4995947;28;20171;-62
2024/01/26 06:01:35;;;;;;;0.00;0.00;;;5.70;99.90;;;;;;4996920;28;20018;-63
2024/01/26 06:04:01;;;;;;;0.00;0.00;;;5.70;99.90;;;;;;4995228;28;20030;-62
2024/01/26 06:06:27;;;;;;;0.00;0.00;;;5.60;99.90;;;;;;4994528;28;20370;-61
2024/01/26 06:08:52;;;;;;;0.00;0.00;;;5.60;99.90;;;;;;4997915;28;20030;-62
2024/01/26 06:11:19;;;;;;;0.00;0.00;;;5.70;99.90;;;;;;4998312;28;20617;-62
2024/01/26 06:13:45;;;;;;;0.00;0.00;;;5.70;99.90;;;;;;4998145;28;20153;-64
2024/01/26 06:16:14;;;;;;;0.00;0.00;;;5.70;99.90;;;;;;4996587;28;20489;-62
2024/01/26 06:18:43;;;;;;;0.65;0.65;;;5.70;99.90;;;;;;4998148;28;20051;-62
2024/01/26 06:21:10;;;;;;;0.00;0.00;;;5.70;99.90;;;;;;4990778;28;20429;-63
2024/01/26 06:23:36;;;;;;;0.00;0.00;;;5.70;99.90;;;;;;4997091;28;20504;-62
2024/01/26 06:26:01;;;;;;;0.00;0.00;;;5.70;99.90;;;;;;4993565;28;20127;-62
2024/01/26 06:28:27;;;;;;;0.00;0.00;;;5.70;99.90;;;;;;4997641;28;20104;-62
2024/01/26 06:30:53;;;;;;;0.00;0.00;;;5.70;99.90;;;;;;4995104;28;20025;-62
2024/01/26 06:33:18;;;;;;;0.00;0.00;;;5.70;99.90;;;;;;4998109;28;20026;-64
2024/01/26 06:35:44;;;;;;;0.00;0.00;;;5.80;99.90;;;;;;4997593;28;20021;-63
2024/01/26 06:38:10;;;;;;;0.00;0.00;;;5.80;99.90;;;;;;4993546;28;20840;-63
2024/01/26 06:40:36;;;;;;;0.00;0.00;;;5.90;99.90;;;;;;4997516;28;20776;-62
2024/01/26 06:43:07;;;;;;;0.00;0.00;;;6.10;99.90;;;;;;4997824;28;20034;-63
2024/01/26 06:45:33;;;;;;;0.00;0.00;;;6.40;99.90;;;;;;4997501;28;20025;-63
2024/01/26 06:47:59;;;;;;;0.00;0.00;;;6.60;99.90;;;;;;4998104;28;20036;-62
2024/01/26 06:50:25;;;;;;;0.00;0.00;;;6.70;99.90;;;;;;4993652;28;20045;-62
2024/01/26 06:52:50;;;;;;;0.00;0.00;;;7.00;99.90;;;;;;4999318;28;20064;-63
2024/01/26 06:55:16;;;;;;;0.00;0.00;;;7.20;99.90;;;;;;4998996;28;20021;-62
2024/01/26 06:57:42;;;;;;;0.00;0.00;;;7.50;99.90;;;;;;4999279;28;20014;-63
2024/01/26 07:00:09;;;;;;;0.00;0.00;;;7.60;99.90;;;;;;4997292;28;20033;-63
2024/01/26 07:02:34;;;;;;;0.00;0.00;;;7.60;99.90;;;;;;4995501;28;20022;-63
2024/01/26 07:05:00;;;;;;;0.00;0.00;;;7.50;99.90;;;;;;4994843;28;20029;-62
2024/01/26 07:07:26;;;;;;;0.00;0.00;;;7.40;99.90;;;;;;4999167;28;20321;-62
2024/01/26 07:09:51;;;;;;;0.40;0.17;;;7.40;99.90;;;;;;4995518;28;20088;-63
2024/01/26 07:12:17;;;;;;;0.00;0.00;;;7.30;99.90;;;;;;4997547;28;20030;-64
2024/01/26 07:14:43;;;;;;;0.00;0.00;;;7.40;99.90;;;;;;5005500;28;20022;-63
2024/01/26 07:17:08;;;;;;;0.00;0.00;;;7.50;99.90;;;;;;4996070;28;20026;-63
2024/01/26 07:19:34;;;;;;;0.00;0.00;;;7.70;99.90;;;;;;4998400;28;20513;-64
2024/01/26 07:22:00;;;;;;;0.00;0.00;;;7.80;99.90;;;;;;5000798;28;20034;-63
2024/01/26 07:24:25;;;;;;;0.00;0.00;;;8.00;99.90;;;;;;4999715;28;20038;-62
2024/01/26 07:26:52;;;;;;;0.00;0.00;;;8.10;99.90;;;;;;4996751;28;20038;-64
2024/01/26 07:29:18;;;;;;;0.00;0.00;;;8.00;99.90;;;;;;4997209;28;20036;-63
2024/01/26 07:31:46;;;;;;;0.00;0.00;;;8.00;99.90;;;;;;4998946;28;20014;-64
2024/01/26 07:34:12;;;;;;;0.00;0.00;;;8.00;99.90;;;;;;4997253;28;20029;-64
2024/01/26 07:36:37;;;;;;;0.00;0.00;;;8.10;99.90;;;;;;4997874;28;20025;-63
2024/01/26 07:39:05;;;;;;;0.00;0.00;;;8.10;99.90;;;;;;4992578;28;20026;-63
2024/01/26 07:41:31;;;;;;;0.00;0.00;;;8.10;99.90;;;;;;4996086;28;20076;-63
2024/01/26 07:43:57;;;;;;;0.00;0.00;;;8.10;99.90;;;;;;4991695;28;20057;-62
2024/01/26 07:46:22;;;;;;;0.00;0.00;;;8.20;99.90;;;;;;4997114;28;20393;-63
2024/01/26 07:48:48;;;;;;;0.00;0.00;;;8.10;99.90;;;;;;4996690;28;20780;-64
2024/01/26 07:51:14;;;;;;;0.00;0.00;;;8.10;99.90;;;;;;4996546;28;20022;-63
2024/01/26 07:53:39;;;;;;;0.00;0.00;;;8.20;99.90;;;;;;4993834;28;20014;-64
2024/01/26 07:56:06;;;;;;;0.00;0.00;;;8.30;99.90;;;;;;4997968;28;20026;-63
2024/01/26 07:58:32;;;;;;;0.00;0.00;;;8.30;99.90;;;;;;4996746;28;20034;-63
2024/01/26 08:00:58;;;;;;;0.00;0.00;;;8.50;99.90;;;;;;4993520;28;20056;-64
2024/01/26 08:03:23;;;;;;;0.00;0.00;;;8.60;99.90;;;;;;4997715;28;20022;-62
2024/01/26 08:05:49;;;;;;;0.00;0.00;;;8.60;99.90;;;;;;4997898;28;20056;-62
2024/01/26 08:08:15;;;;;;;0.00;0.00;;;8.60;99.90;;;;;;4996688;28;20109;-63
2024/01/26 08:10:40;;;;;;;0.00;0.00;;;8.60;99.90;;;;;;4996204;28;20022;-62
2024/01/26 08:13:06;;;;;;;0.00;0.00;;;8.50;99.90;;;;;;4992977;28;20279;-64
2024/01/26 08:15:32;;;;;;;0.00;0.00;;;8.30;99.90;;;;;;4996667;28;20171;-64
2024/01/26 08:17:58;;;;;;;0.00;0.00;;;8.30;99.90;;;;;;4993322;28;20061;-62
2024/01/26 08:20:23;;;;;;;0.00;0.00;;;8.40;99.90;;;;;;4998510;28;20046;-62
2024/01/26 08:22:49;;;;;;;0.00;0.00;;;8.40;99.90;;;;;;4996810;28;20034;-63
2024/01/26 08:25:14;;;;;;;0.00;0.00;;;8.50;99.90;;;;;;4996010;28;20045;-63
2024/01/26 08:27:40;;;;;;;0.00;0.00;;;8.40;99.90;;;;;;4995820;28;20045;-64
2024/01/26 08:30:06;;;;;;;0.00;0.00;;;8.30;99.90;;;;;;4993680;28;20136;-63
2024/01/26 08:32:32;;;;;;;0.00;0.00;;;8.30;99.90;;;;;;4996761;28;20103;-64
2024/01/26 08:34:58;;;;;;;0.00;0.00;;;8.30;99.90;;;;;;4992931;28;20056;-62
2024/01/26 08:37:24;;;;;;;0.00;0.00;;;8.40;99.90;;;;;;4997793;28;20046;-63
2024/01/26 08:39:49;;;;;;;0.00;0.00;;;8.40;99.90;;;;;;4992777;28;20018;-64
2024/01/26 08:42:16;;;;;;;0.00;0.00;;;8.40;99.90;;;;;;4999341;28;20056;-62
2024/01/26 08:44:42;;;;;;;0.00;0.00;;;8.60;99.90;;;;;;4993913;28;20500;-64
2024/01/26 08:47:08;;;;;;;0.00;0.00;;;8.60;99.90;;;;;;4993048;28;20030;-62
2024/01/26 08:49:34;;;;;;;0.00;0.00;;;8.50;99.90;;;;;;4992973;28;20113;-63
2024/01/26 08:51:59;;;;;;;0.00;0.00;;;8.50;99.90;;;;;;4996216;28;20120;-63
2024/01/26 08:54:25;;;;;;;0.00;0.00;;;8.50;99.90;;;;;;4996772;28;20025;-64
2024/01/26 08:56:51;;;;;;;0.00;0.00;;;8.60;99.90;;;;;;4999106;28;20339;-63
2024/01/26 08:59:16;;;;;;;0.00;0.00;;;8.60;99.90;;;;;;5013982;28;20064;-64
2024/01/26 09:01:42;;;;;;;0.00;0.00;;;8.60;99.90;;;;;;4999516;28;20036;-64
2024/01/26 09:04:08;;;;;;;0.00;0.00;;;8.60;99.90;;;;;;5000662;28;20038;-64
2024/01/26 09:06:34;;;;;;;0.00;0.00;;;8.70;99.90;;;;;;4998315;28;20768;-64
2024/01/26 09:09:03;;;;;;;0.00;0.00;;;8.80;99.90;;;;;;4999624;28;20621;-64
2024/01/26 09:11:30;;;;;;;0.10;0.10;;;8.80;99.90;;;;;;4997989;28;21121;-63
2024/01/26 09:13:58;;;;;;;0.00;0.00;;;8.90;99.90;;;;;;4995023;28;20022;-63
2024/01/26 09:16:25;;;;;;;0.00;0.00;;;8.90;99.90;;;;;;4999701;28;20030;-64
2024/01/26 09:18:51;;;;;;;0.00;0.00;;;8.90;99.90;;;;;;4995157;28;20033;-64
2024/01/26 09:21:17;;;;;;;0.00;0.00;;;8.90;99.90;;;;;;5004899;28;20032;-63
2024/01/26 09:23:43;;;;;;;0.00;0.00;;;8.90;99.90;;;;;;4998720;28;20041;-64
2024/01/26 09:26:10;;;;;;;0.00;0.00;;;8.90;99.90;;;;;;4995934;28;20361;-64
2024/01/26 09:28:36;;;;;;;0.00;0.00;;;9.00;99.90;;;;;;4999226;28;20030;-64
2024/01/26 09:31:02;;;;;;;0.00;0.00;;;8.90;99.90;;;;;;4999312;28;20030;-64
2024/01/26 09:33:27;;;;;;;0.00;0.00;;;9.00;99.90;;;;;;5001252;28;20052;-65
2024/01/26 09:35:54;;;;;;;0.00;0.00;;;9.00;99.90;;;;;;4995166;28;20265;-65
2024/01/26 09:38:19;;;;;;;;;;;9.00;99.90;;;;;;4998877;28;20026;-64
2024/01/26 09:40:45;;;;;;;0.00;0.00;;;8.90;99.90;;;;;;4997694;28;19905;-65
2024/01/26 09:43:11;;;;;;;0.00;0.00;;;9.00;99.90;;;;;;4999695;28;20429;-64
2024/01/26 09:45:37;;;;;;;0.00;0.00;;;9.00;99.90;;;;;;4996124;28;20030;-63
2024/01/26 09:48:05;;;;;;;0.00;0.00;;;9.00;99.90;;;;;;5000188;28;20039;-64
2024/01/26 09:50:31;;;;;;;0.00;0.00;;;9.00;99.90;;;;;;5000684;28;20507;-64
2024/01/26 09:52:58;;;;;;;0.00;0.00;;;9.00;99.90;;;;;;4999828;28;20045;-65
2024/01/26 09:55:25;;;;;;;0.00;0.00;;;9.00;99.90;;;;;;4996145;28;20026;-65
2024/01/26 09:57:53;;;;;;;0.00;0.00;;;9.00;99.90;;;;;;4998441;28;20026;-65
2024/01/26 10:00:19;;;;;;;0.00;0.00;;;9.00;99.90;;;;;;4997176;28;20359;-65
2024/01/26 10:02:45;;;;;;;0.00;0.00;;;8.90;99.90;;;;;;4999730;28;20029;-64
2024/01/26 10:05:16;;;;;;;0.00;0.00;;;8.80;99.90;;;;;;5001627;28;20034;-65
2024/01/26 10:07:42;;;;;;;0.00;0.00;;;8.80;99.90;;;;;;4994744;28;20022;-64
2024/01/26 10:10:08;;;;;;;0.00;0.00;;;8.90;99.90;;;;;;5000730;28;20611;-64
2024/01/26 10:12:35;;;;;;;0.00;0.00;;;8.90;99.90;;;;;;5031858;28;20517;-62
2024/01/26 10:15:07;;;;;;;0.00;0.00;;;9.00;99.90;;;;;;4995811;28;20034;-63
2024/01/26 10:17:33;;;;;;;0.00;0.00;;;9.20;99.90;;;;;;4997712;28;20087;-63
2024/01/26 10:20:14;;;;;;;0.00;0.00;;;9.20;99.90;;;;;;4999892;28;20029;-64
2024/01/26 10:22:45;;;;;;;0.00;0.00;;;9.20;99.90;;;;;;4992036;28;20030;-63
2024/01/26 10:25:11;;;;;;;0.00;0.00;;;9.20;99.90;;;;;;5010697;28;20398;-63
2024/01/26 10:27:36;;;;;;;0.00;0.00;;;9.30;99.90;;;;;;4999146;28;20033;-63
2024/01/26 10:30:03;;;;;;;0.00;0.00;;;9.40;99.90;;;;;;4996611;28;20103;-63
2024/01/26 10:32:30;;;;;;;0.00;0.00;;;9.50;99.90;;;;;;4997994;28;20028;-63
2024/01/26 10:35:00;;;;;;;0.00;0.00;;;9.50;99.90;;;;;;4993628;28;20544;-62
2024/01/26 10:37:31;;;;;;;0.00;0.00;;;9.40;99.90;;;;;;4999835;28;20469;-64
2024/01/26 10:39:58;;;;;;;0.00;0.00;;;9.40;99.90;;;;;;4997670;28;20028;-63
2024/01/26 10:42:26;;;;;;;0.63;0.30;;;9.30;99.90;;;;;;4997036;28;20055;-63
2024/01/26 10:44:53;;;;;;;0.00;0.00;;;9.20;99.90;;;;;;4996827;28;20091;-64
2024/01/26 10:47:19;;;;;;;0.10;0.10;;;9.20;99.90;;;;;;4997761;28;20064;-64
2024/01/26 10:49:49;;;;;;;0.00;0.00;;;9.20;99.90;;;;;;4996600;28;20021;-63
2024/01/26 10:52:22;;;;;;;0.00;0.00;;;9.10;99.90;;;;;;4998084;28;20022;-63
2024/01/26 10:54:50;;;;;;;0.00;0.00;;;9.00;99.90;;;;;;4997291;28;20019;-65
2024/01/26 10:57:16;;;;;;;0.00;0.00;;;9.00;99.90;;;;;;4996139;28;20475;-62
2024/01/26 10:59:43;;;;;;;1.20;0.52;;;8.90;99.90;;;;;;4997871;28;20139;-63
2024/01/26 11:02:14;;;;;;;0.00;0.00;;;8.90;99.90;;;;;;4999174;28;20675;-63
2024/01/26 11:04:42;;;;;;;0.00;0.00;;;8.90;99.90;;;;;;5001585;28;20033;-63
2024/01/26 11:07:09;;;;;;;0.00;0.00;;;8.80;99.90;;;;;;4989691;28;20115;-62
2024/01/26 11:09:38;;;;;;;0.00;0.00;;;8.70;99.90;;;;;;4999335;28;20029;-63
2024/01/26 11:12:22;;;;;;;0.00;0.00;;;8.60;99.90;;;;;;4995208;28;20017;-63
2024/01/26 11:15:09;;;;;;;0.00;0.00;;;8.50;99.90;;;;;;4996237;28;20133;-63
2024/01/26 11:17:56;;;;;;;0.00;0.00;;;8.60;99.90;;;;;;4992863;28;20362;-62
2024/01/26 11:20:31;;;;;;;0.00;0.00;;;8.70;99.90;;;;;;4997687;28;20037;-63
2024/01/26 11:23:14;;;;;;;0.00;0.00;;;8.70;99.90;;;;;;4996037;28;20382;-63
2024/01/26 11:25:49;;;;;;;0.00;0.00;;;8.90;99.90;;;;;;5000209;28;20053;-64
2024/01/26 11:28:17;;;;;;;0.10;0.10;;;9.00;99.90;;;;;;5009748;28;20536;-64
2024/01/26 11:30:53;;;;;;;0.00;0.00;;;9.10;99.90;;;;;;4995808;28;20636;-63
2024/01/26 11:33:21;;;;;;;0.08;0.08;;;9.10;99.90;;;;;;4996594;28;20113;-65
2024/01/26 11:35:48;;;;;;;0.00;0.00;;;9.00;99.90;;;;;;4998091;28;20087;-63
2024/01/26 11:38:13;;;;;;;;;;;8.90;99.90;;;;;;4997992;28;20022;-63
2024/01/26 11:40:40;;;;;;;0.00;0.00;;;8.60;99.90;;;;;;4994035;28;19905;-64
2024/01/26 11:43:05;;;;;;;0.00;0.00;;;8.50;99.90;;;;;;4997804;28;20053;-62
2024/01/26 11:45:47;;;;;;;0.00;0.00;;;8.40;99.90;;;;;;4994772;28;20089;-62
2024/01/26 11:48:14;;;;;;;0.10;0.10;;;8.20;99.90;;;;;;4994442;28;20166;-63
2024/01/26 11:50:42;;;;;;;0.00;0.00;;;8.10;99.90;;;;;;4994682;28;20103;-63
2024/01/26 11:53:08;;;;;;;0.00;0.00;;;7.90;99.90;;;;;;4991853;28;20489;-63
2024/01/26 11:55:35;;;;;;;;;;;8.00;99.90;;;;;;5001392;28;20480;-62
2024/01/26 11:58:01;;;;;;;0.00;0.00;;;7.90;99.90;;;;;;4994895;28;19917;-62
2024/01/26 12:00:29;;;;;;;0.00;0.00;;;8.00;99.90;;;;;;4997190;28;20079;-63
2024/01/26 12:02:56;;;;;;;0.00;0.00;;;7.90;99.90;;;;;;4997340;28;20022;-63
2024/01/26 12:05:22;;;;;;;0.00;0.00;;;7.80;99.90;;;;;;4996658;28;20029;-62
2024/01/26 12:07:48;;;;;;;0.00;0.00;;;7.60;99.90;;;;;;4996967;28;20034;-65
2024/01/26 12:10:14;;;;;;;0.00;0.00;;;7.70;99.90;;;;;;4996157;28;20112;-63
2024/01/26 12:12:44;;;;;;;0.00;0.00;;;7.70;99.90;;;;;;4997444;28;20022;-64
2024/01/26 12:15:10;;;;;;;0.00;0.00;;;7.80;99.90;;;;;;5009171;28;20108;-63
2024/01/26 12:17:36;;;;;;;0.00;0.00;;;7.90;99.90;;;;;;4995677;28;20072;-63
2024/01/26 12:20:08;;;;;;;0.00;0.00;;;7.90;99.90;;;;;;4992089;28;20038;-63
2024/01/26 12:22:34;;;;;;;0.00;0.00;;;7.90;99.90;;;;;;4995554;28;20702;-62
2024/01/26 12:25:05;;;;;;;0.00;0.00;;;7.80;99.90;;;;;;4992405;28;20045;-62
2024/01/26 12:27:31;;;;;;;0.00;0.00;;;7.60;99.90;;;;;;5001222;28;20108;-63
2024/01/26 12:29:56;;;;;;;0.00;0.00;;;7.50;99.90;;;;;;4997562;28;20025;-62
2024/01/26 12:32:22;;;;;;;0.00;0.00;;;7.50;99.90;;;;;;5001018;28;20033;-63
2024/01/26 12:34:48;;;;;;;0.00;0.00;;;7.50;99.90;;;;;;4998975;28;20643;-64
2024/01/26 12:37:14;;;;;;;0.00;0.00;;;7.40;99.90;;;;;;4998309;28;20037;-63
2024/01/26 12:39:39;;;;;;;0.00;0.00;;;7.40;99.90;;;;;;4999205;28;20354;-63
2024/01/26 12:42:05;;;;;;;0.00;0.00;;;7.30;99.90;;;;;;5000990;28;20268;-64
2024/01/26 12:44:33;;;;;;;0.00;0.00;;;7.30;99.90;;;;;;5000895;28;20044;-63
2024/01/26 12:47:00;;;;;;;0.00;0.00;;;7.30;99.90;;;;;;5027766;28;20030;-64
2024/01/26 12:49:26;;;;;;;0.00;0.00;;;7.40;99.90;;;;;;4998364;28;20581;-63
2024/01/26 12:51:53;;;;;;;0.00;0.00;;;7.40;99.90;;;;;;4995820;28;20018;-64
2024/01/26 12:54:20;;;;;;;0.00;0.00;;;7.40;99.90;;;;;;4999647;28;20044;-63